Time;durP1;ratioP1;P1;durP2;ratioP2;P2;SDS_P1;SDS_P2;PMS_P1;PMS_P2;Temp;Humidity;BMP_temperature;BMP_pressure;BME280_temperature;BME280_humidity;BME280_pressure;Samples;Min_cycle;Max_cycle;Signal;HPM_P1;HPM_P2
2023/02/21 02:14:48;;;;;;;;;;;;;;;;;;4438728;32;19948;-80
2023/02/21 02:17:13;;;;;;;;;;;;;;;;;;4440075;32;19949;-78
2023/02/21 02:19:38;;;;;;;;;;;;;;;;;;4428770;32;19949;-80
2023/02/21 02:22:03;;;;;;;;;;;;;;;;;;4421888;32;19976;-79
2023/02/21 02:24:29;;;;;;;;;;;;;;;;;;4423435;32;19934;-79
2023/02/21 02:26:54;;;;;;;;;;;;;;;;;;4437036;32;20024;-79
2023/02/21 02:29:19;;;;;;;;;;;;;;;;;;4436650;32;19953;-77
2023/02/21 02:31:44;;;;;;;;;;;;;;;;;;4438500;32;20064;-79
2023/02/21 02:34:10;;;;;;;;;;;;;;;;;;4437983;32;19941;-79
2023/02/21 02:36:35;;;;;;;;;;;;;;;;;;4423721;32;19978;-78
2023/02/21 02:39:00;;;;;;;;;;;;;;;;;;4436287;32;19936;-80
2023/02/21 02:41:25;;;;;;;;;;;;;;;;;;4438086;32;20045;-79
2023/02/21 02:43:50;;;;;;;;;;;;;;;;;;4437912;32;20332;-79
2023/02/21 02:46:15;;;;;;;;;;;;;;;;;;4436784;32;19984;-79
2023/02/21 02:48:40;;;;;;;;;;;;;;;;;;4434556;32;19987;-79
2023/02/21 02:51:05;;;;;;;;;;;;;;;;;;4416764;32;19945;-80
2023/02/21 02:53:30;;;;;;;;;;;;;;;;;;4425338;32;19937;-79
2023/02/21 02:55:55;;;;;;;;;;;;;;;;;;4428375;32;19937;-79
2023/02/21 02:58:21;;;;;;;;;;;;;;;;;;4436947;32;19936;-79
2023/02/21 03:00:46;;;;;;;;;;;;;;;;;;4436417;32;20330;-79
2023/02/21 03:03:11;;;;;;;;;;;;;;;;;;4435773;32;19967;-78
2023/02/21 03:05:36;;;;;;;;;;;;;;;;;;4448423;32;20335;-79
2023/02/21 03:08:01;;;;;;;;;;;;;;;;;;4439511;32;19970;-79
2023/02/21 03:10:26;;;;;;;;;;;;;;;;;;4437771;32;20029;-80
2023/02/21 03:12:52;;;;;;;;;;;;;;;;;;4441660;32;19945;-79
2023/02/21 03:15:17;;;;;;;;;;;;;;;;;;4439449;32;19967;-79
2023/02/21 03:17:42;;;;;;;;;;;;;;;;;;4437522;32;19986;-79
2023/02/21 03:20:07;;;;;;;;;;;;;;;;;;4436458;32;19951;-79
2023/02/21 03:22:32;;;;;;;;;;;;;;;;;;4437262;32;20337;-80
2023/02/21 03:24:57;;;;;;;;;;;;;;;;;;4440776;32;19941;-80
2023/02/21 03:27:22;;;;;;;;;;;;;;;;;;4440513;32;19988;-79
2023/02/21 03:29:47;;;;;;;;;;;;;;;;;;4424433;32;19947;-79
2023/02/21 03:34:37;;;;;;;;;;;;;;;;;;4422700;32;20000;-79
2023/02/21 03:37:02;;;;;;;;;;;;;;;;;;4427579;32;19941;-77
2023/02/21 03:39:28;;;;;;;;;;;;;;;;;;4424094;32;19971;-80
2023/02/21 03:41:53;;;;;;;;;;;;;;;;;;4423562;32;20349;-78
2023/02/21 03:44:18;;;;;;;;;;;;;;;;;;4422250;32;19956;-79
2023/02/21 03:46:43;;;;;;;;;;;;;;;;;;4433618;32;19984;-78
2023/02/21 03:49:08;;;;;;;;;;;;;;;;;;4438320;32;19995;-78
2023/02/21 03:51:33;;;;;;;;;;;;;;;;;;4439535;32;19980;-78
2023/02/21 03:53:58;;;;;;;;;;;;;;;;;;4438184;32;19975;-79
2023/02/21 03:56:24;;;;;;;;;;;;;;;;;;4437876;32;19968;-79
2023/02/21 03:58:49;;;;;;;;;;;;;;;;;;4438393;32;20320;-79
2023/02/21 04:01:14;;;;;;;;;;;;;;;;;;4438336;32;20011;-79
2023/02/21 04:03:39;;;;;;;;;;;;;;;;;;4440279;32;19941;-79
2023/02/21 04:06:04;;;;;;;;;;;;;;;;;;4424673;32;19986;-79
2023/02/21 04:08:29;;;;;;;;;;;;;;;;;;4423711;32;19932;-80
2023/02/21 04:10:54;;;;;;;;;;;;;;;;;;4438524;32;20433;-79
2023/02/21 04:13:19;;;;;;;;;;;;;;;;;;4439999;32;19945;-79
2023/02/21 04:15:44;;;;;;;;;;;;;;;;;;4437522;32;19974;-79
2023/02/21 04:18:09;;;;;;;;;;;;;;;;;;4438469;32;19970;-79
2023/02/21 04:20:35;;;;;;;;;;;;;;;;;;4437725;32;19945;-78
2023/02/21 04:23:00;;;;;;;;;;;;;;;;;;4423792;32;19937;-79
2023/02/21 04:25:25;;;;;;;;;;;;;;;;;;4437974;32;19946;-79
2023/02/21 04:27:50;;;;;;;;;;;;;;;;;;4438396;32;19945;-79
2023/02/21 04:30:15;;;;;;;;;;;;;;;;;;4439522;32;20050;-79
2023/02/21 04:32:40;;;;;;;;;;;;;;;;;;4423887;32;19934;-78
2023/02/21 04:35:05;;;;;;;;;;;;;;;;;;4437451;32;20293;-81
2023/02/21 04:37:30;;;;;;;;;;;;;;;;;;4438207;32;19948;-79
2023/02/21 04:39:56;;;;;;;;;;;;;;;;;;4438634;32;20529;-80
2023/02/21 04:42:21;;;;;;;;;;;;;;;;;;4439036;32;19939;-79
2023/02/21 04:44:46;;;;;;;;;;;;;;;;;;4441018;32;19966;-80
2023/02/21 04:47:11;;;;;;;;;;;;;;;;;;4439961;32;20287;-77
2023/02/21 04:49:36;;;;;;;;;;;;;;;;;;4444256;32;19996;-80
2023/02/21 04:52:01;;;;;;;;;;;;;;;;;;4445718;32;19932;-79
2023/02/21 04:54:26;;;;;;;;;;;;;;;;;;4437265;32;19948;-78
2023/02/21 04:56:51;;;;;;;;;;;;;;;;;;4423750;32;19948;-80
2023/02/21 04:59:16;;;;;;;;;;;;;;;;;;4424127;32;20311;-78
2023/02/21 05:01:42;;;;;;;;;;;;;;;;;;4425477;32;19960;-78
2023/02/21 05:04:07;;;;;;;;;;;;;;;;;;4441503;32;19937;-78
2023/02/21 05:06:32;;;;;;;;;;;;;;;;;;4440453;32;19989;-78
2023/02/21 05:08:57;;;;;;;;;;;;;;;;;;4437268;32;19948;-79
2023/02/21 05:11:22;;;;;;;;;;;;;;;;;;4437096;32;19937;-79
2023/02/21 05:13:47;;;;;;;;;;;;;;;;;;4437391;32;19952;-80
2023/02/21 05:16:12;;;;;;;;;;;;;;;;;;4437774;32;19948;-79
2023/02/21 05:18:37;;;;;;;;;;;;;;;;;;4438579;32;19976;-78
2023/02/21 05:21:03;;;;;;;;;;;;;;;;;;4437305;32;19941;-79
2023/02/21 05:23:33;;;;;;;;;;;;;;;;;;4439530;32;19933;-79
2023/02/21 05:25:59;;;;;;;;;;;;;;;;;;4439659;32;20000;-77
2023/02/21 05:28:24;;;;;;;;;;;;;;;;;;4426111;32;19952;-78
2023/02/21 05:30:49;;;;;;;;;;;;;;;;;;4423572;32;19948;-79
2023/02/21 05:33:14;;;;;;;;;;;;;;;;;;4420289;32;19984;-79
2023/02/21 05:35:39;;;;;;;;;;;;;;;;;;4427083;32;20003;-78
2023/02/21 05:38:04;;;;;;;;;;;;;;;;;;4423145;32;19988;-79
2023/02/21 05:40:29;;;;;;;;;;;;;;;;;;4428296;32;19956;-78
2023/02/21 05:42:54;;;;;;;;;;;;;;;;;;4411614;32;19973;-78
2023/02/21 05:45:19;;;;;;;;;;;;;;;;;;4429564;32;19960;-78
2023/02/21 05:47:44;;;;;;;;;;;;;;;;;;4436106;32;19951;-79
2023/02/21 05:50:09;;;;;;;;;;;;;;;;;;4423120;32;20277;-79
2023/02/21 05:52:35;;;;;;;;;;;;;;;;;;4422456;32;19936;-79
2023/02/21 05:55:00;;;;;;;;;;;;;;;;;;4424166;32;19990;-79
2023/02/21 05:57:25;;;;;;;;;;;;;;;;;;4436219;32;19944;-78
2023/02/21 05:59:50;;;;;;;;;;;;;;;;;;4436729;32;20262;-79
2023/02/21 06:02:15;;;;;;;;;;;;;;;;;;4442108;32;19932;-79
2023/02/21 06:04:40;;;;;;;;;;;;;;;;;;4444222;32;20004;-79
2023/02/21 06:07:05;;;;;;;;;;;;;;;;;;4450508;32;19940;-78
2023/02/21 06:09:30;;;;;;;;;;;;;;;;;;4426019;32;19975;-78
2023/02/21 06:11:56;;;;;;;;;;;;;;;;;;4442805;32;20348;-77
2023/02/21 06:14:21;;;;;;;;;;;;;;;;;;4438459;32;19955;-77
2023/02/21 06:16:46;;;;;;;;;;;;;;;;;;4436374;32;20340;-78
2023/02/21 06:19:11;;;;;;;;;;;;;;;;;;4422243;32;19940;-77
2023/02/21 06:21:36;;;;;;;;;;;;;;;;;;4437681;32;19952;-77
2023/02/21 06:24:01;;;;;;;;;;;;;;;;;;4432398;32;20343;-77
2023/02/21 06:26:27;;;;;;;;;;;;;;;;;;4430502;32;19951;-78
2023/02/21 06:28:52;;;;;;;;;;;;;;;;;;4436780;32;19972;-78
2023/02/21 06:31:17;;;;;;;;;;;;;;;;;;4438220;32;19951;-78
2023/02/21 06:33:42;;;;;;;;;;;;;;;;;;4435506;32;20306;-77
2023/02/21 06:36:07;;;;;;;;;;;;;;;;;;4436621;32;19933;-79
2023/02/21 06:38:32;;;;;;;;;;;;;;;;;;4423615;32;19945;-78
2023/02/21 06:40:58;;;;;;;;;;;;;;;;;;4436411;32;19940;-77
2023/02/21 06:43:23;;;;;;;;;;;;;;;;;;4436699;32;20300;-78
2023/02/21 06:45:48;;;;;;;;;;;;;;;;;;4432047;32;19937;-79
2023/02/21 06:48:13;;;;;;;;;;;;;;;;;;4436847;32;19997;-80
2023/02/21 06:50:38;;;;;;;;;;;;;;;;;;4436763;32;19940;-79
2023/02/21 06:53:03;;;;;;;;;;;;;;;;;;4436680;32;19947;-79
2023/02/21 06:55:28;;;;;;;;;;;;;;;;;;4425256;32;20311;-79
2023/02/21 06:57:53;;;;;;;;;;;;;;;;;;4408282;32;19995;-79
2023/02/21 07:00:18;;;;;;;;;;;;;;;;;;4424557;32;19941;-78
2023/02/21 07:02:43;;;;;;;;;;;;;;;;;;4438058;32;20083;-79
2023/02/21 07:05:08;;;;;;;;;;;;;;;;;;4430715;32;19942;-78
2023/02/21 07:07:34;;;;;;;;;;;;;;;;;;4409820;32;20314;-78
2023/02/21 07:09:59;;;;;;;;;;;;;;;;;;4424395;32;19981;-79
2023/02/21 07:12:24;;;;;;;;;;;;;;;;;;4410372;32;19995;-80
2023/02/21 07:14:49;;;;;;;;;;;;;;;;;;4430142;32;19932;-79
2023/02/21 07:17:14;;;;;;;;;;;;;;;;;;4438997;32;20009;-77
2023/02/21 07:19:41;;;;;;;;;;;;;;;;;;4440756;32;19960;-79
2023/02/21 07:22:06;;;;;;;;;;;;;;;;;;4441926;32;20000;-79
2023/02/21 07:24:31;;;;;;;;;;;;;;;;;;4440722;32;19937;-79
2023/02/21 07:26:56;;;;;;;;;;;;;;;;;;4440412;32;19941;-79
2023/02/21 07:29:21;;;;;;;;;;;;;;;;;;4438558;32;20306;-79
2023/02/21 07:31:46;;;;;;;;;;;;;;;;;;4438858;32;19967;-79
2023/02/21 07:34:11;;;;;;;;;;;;;;;;;;4438020;32;19971;-79
2023/02/21 07:36:36;;;;;;;;;;;;;;;;;;4424574;32;19937;-79
2023/02/21 07:39:01;;;;;;;;;;;;;;;;;;4426983;32;19984;-79
2023/02/21 07:41:26;;;;;;;;;;;;;;;;;;4439551;32;19936;-79
2023/02/21 07:43:52;;;;;;;;;;;;;;;;;;4440479;32;20304;-79
2023/02/21 07:46:17;;;;;;;;;;;;;;;;;;4430247;32;19948;-80
2023/02/21 07:48:42;;;;;;;;;;;;;;;;;;4443415;32;20303;-79
2023/02/21 07:51:07;;;;;;;;;;;;;;;;;;4427819;32;19961;-80
2023/02/21 07:53:32;;;;;;;;;;;;;;;;;;4442268;32;19952;-79
2023/02/21 07:55:57;;;;;;;;;;;;;;;;;;4440123;32;19972;-78
2023/02/21 07:58:22;;;;;;;;;;;;;;;;;;4439474;32;20367;-79
2023/02/21 08:00:48;;;;;;;;;;;;;;;;;;4426754;32;19940;-80
2023/02/21 08:03:13;;;;;;;;;;;;;;;;;;4425008;32;20120;-79
2023/02/21 08:05:38;;;;;;;;;;;;;;;;;;4438524;32;20322;-79
2023/02/21 08:08:03;;;;;;;;;;;;;;;;;;4440088;32;19933;-79
2023/02/21 08:10:28;;;;;;;;;;;;;;;;;;4429171;32;19974;-79
2023/02/21 08:12:53;;;;;;;;;;;;;;;;;;4425054;32;20366;-79
2023/02/21 08:15:18;;;;;;;;;;;;;;;;;;4441014;32;19951;-80
2023/02/21 08:17:43;;;;;;;;;;;;;;;;;;4426059;32;19952;-78
2023/02/21 08:20:09;;;;;;;;;;;;;;;;;;4430624;32;19941;-78
2023/02/21 08:22:34;;;;;;;;;;;;;;;;;;4411590;32;19995;-79
2023/02/21 08:24:59;;;;;;;;;;;;;;;;;;4436141;32;19937;-79
2023/02/21 08:27:24;;;;;;;;;;;;;;;;;;4437985;32;19996;-79
2023/02/21 08:29:49;;;;;;;;;;;;;;;;;;4438627;32;19944;-79
2023/02/21 08:32:14;;;;;;;;;;;;;;;;;;4440047;32;20275;-79
2023/02/21 08:34:39;;;;;;;;;;;;;;;;;;4426259;32;19970;-78
2023/02/21 08:37:13;;;;;;;;;;;;;;;;;;4441077;32;20019;-79
2023/02/21 08:39:38;;;;;;;;;;;;;;;;;;4440950;32;19945;-79
2023/02/21 08:42:03;;;;;;;;;;;;;;;;;;4445969;32;19933;-80
2023/02/21 08:44:28;;;;;;;;;;;;;;;;;;4443419;32;19941;-79
2023/02/21 08:46:53;;;;;;;;;;;;;;;;;;4440205;32;19937;-79
2023/02/21 08:49:19;;;;;;;;;;;;;;;;;;4438884;32;19955;-77
2023/02/21 08:51:44;;;;;;;;;;;;;;;;;;4439767;32;20270;-78
2023/02/21 08:54:09;;;;;;;;;;;;;;;;;;4438564;32;19943;-79
2023/02/21 08:56:34;;;;;;;;;;;;;;;;;;4440065;32;20009;-79
2023/02/21 08:58:59;;;;;;;;;;;;;;;;;;4436231;32;19989;-79
2023/02/21 09:01:24;;;;;;;;;;;;;;;;;;4408939;32;19987;-79
2023/02/21 09:03:49;;;;;;;;;;;;;;;;;;4427258;32;19937;-79
2023/02/21 09:06:14;;;;;;;;;;;;;;;;;;4438021;32;19968;-77
2023/02/21 09:08:40;;;;;;;;;;;;;;;;;;4423979;32;19955;-79
2023/02/21 09:11:05;;;;;;;;;;;;;;;;;;4422344;32;20057;-79
2023/02/21 09:13:31;;;;;;;;;;;;;;;;;;4409963;32;19941;-80
2023/02/21 09:15:56;;;;;;;;;;;;;;;;;;4438066;32;19993;-79
2023/02/21 09:18:22;;;;;;;;;;;;;;;;;;4424510;32;19937;-80
2023/02/21 09:20:51;;;;;;;;;;;;;;;;;;4438995;32;19956;-79
2023/02/21 09:23:18;;;;;;;;;;;;;;;;;;4443435;32;19940;-79
2023/02/21 09:25:44;;;;;;;;;;;;;;;;;;4440490;32;19979;-79
2023/02/21 09:28:09;;;;;;;;;;;;;;;;;;4439090;32;19940;-79
2023/02/21 09:30:34;;;;;;;;;;;;;;;;;;4438847;32;20314;-79
2023/02/21 09:32:59;;;;;;;;;;;;;;;;;;4437069;32;19984;-78
2023/02/21 09:35:24;;;;;;;;;;;;;;;;;;4438303;32;20282;-79
2023/02/21 09:37:50;;;;;;;;;;;;;;;;;;4437210;32;20251;-80
2023/02/21 09:40:15;;;;;;;;;;;;;;;;;;4421040;32;20004;-80
2023/02/21 09:42:40;;;;;;;;;;;;;;;;;;4421881;32;20001;-79
2023/02/21 09:45:05;;;;;;;;;;;;;;;;;;4421847;32;19933;-80
2023/02/21 09:47:30;;;;;;;;;;;;;;;;;;4422672;32;19941;-79
2023/02/21 09:49:55;;;;;;;;;;;;;;;;;;4422388;32;20361;-79
2023/02/21 09:52:20;;;;;;;;;;;;;;;;;;4423136;32;19945;-79
2023/02/21 09:54:45;;;;;;;;;;;;;;;;;;4424061;32;20262;-79
2023/02/21 09:57:11;;;;;;;;;;;;;;;;;;4424713;32;19967;-78
2023/02/21 09:59:36;;;;;;;;;;;;;;;;;;4429021;32;19937;-77
2023/02/21 10:02:01;;;;;;;;;;;;;;;;;;4426287;32;19977;-78
2023/02/21 10:04:26;;;;;;;;;;;;;;;;;;4427403;32;19937;-79
2023/02/21 10:06:51;;;;;;;;;;;;;;;;;;4428514;32;19960;-78
2023/02/21 10:09:16;;;;;;;;;;;;;;;;;;4426803;32;19947;-77
2023/02/21 10:11:41;;;;;;;;;;;;;;;;;;4422968;32;19941;-79
2023/02/21 10:14:06;;;;;;;;;;;;;;;;;;4423314;32;20035;-77
2023/02/21 10:16:32;;;;;;;;;;;;;;;;;;4417381;32;19937;-78
2023/02/21 10:18:57;;;;;;;;;;;;;;;;;;4408270;32;19942;-79
2023/02/21 10:21:22;;;;;;;;;;;;;;;;;;4408253;32;19937;-79
2023/02/21 10:23:48;;;;;;;;;;;;;;;;;;4411564;32;19974;-80
2023/02/21 10:26:13;;;;;;;;;;;;;;;;;;4415207;32;20292;-80
2023/02/21 10:28:38;;;;;;;;;;;;;;;;;;4422153;32;19990;-79
2023/02/21 10:31:03;;;;;;;;;;;;;;;;;;4422795;32;20367;-79
2023/02/21 10:33:28;;;;;;;;;;;;;;;;;;4426070;32;19933;-80
2023/02/21 10:35:53;;;;;;;;;;;;;;;;;;4426943;32;20325;-80
2023/02/21 10:38:21;;;;;;;;;;;;;;;;;;4418493;32;19938;-81
2023/02/21 10:40:46;;;;;;;;;;;;;;;;;;4409787;32;19952;-79
2023/02/21 10:43:11;;;;;;;;;;;;;;;;;;4396390;32;19953;-79
2023/02/21 10:45:36;;;;;;;;;;;;;;;;;;4395615;32;19972;-79
2023/02/21 10:48:02;;;;;;;;;;;;;;;;;;4394170;32;19953;-78
2023/02/21 10:50:27;;;;;;;;;;;;;;;;;;4395564;32;19942;-78
2023/02/21 10:52:52;;;;;;;;;;;;;;;;;;4393942;32;20017;-77
2023/02/21 10:55:17;;;;;;;;;;;;;;;;;;4395523;32;20331;-79
2023/02/21 10:57:42;;;;;;;;;;;;;;;;;;4393959;32;19971;-79
2023/02/21 11:00:09;;;;;;;;;;;;;;;;;;4398402;32;19946;-78
2023/02/21 11:02:34;;;;;;;;;;;;;;;;;;4407724;32;20407;-79
2023/02/21 11:04:59;;;;;;;;;;;;;;;;;;4409051;32;20288;-80
2023/02/21 11:07:24;;;;;;;;;;;;;;;;;;4409096;32;20333;-79
2023/02/21 11:09:49;;;;;;;;;;;;;;;;;;4410693;32;19937;-78
2023/02/21 11:12:15;;;;;;;;;;;;;;;;;;4409909;32;19952;-78
2023/02/21 11:14:40;;;;;;;;;;;;;;;;;;4409509;32;19979;-77
2023/02/21 11:17:05;;;;;;;;;;;;;;;;;;4408574;32;19956;-78
2023/02/21 11:19:30;;;;;;;;;;;;;;;;;;4412439;32;19933;-78
2023/02/21 11:21:55;;;;;;;;;;;;;;;;;;4417693;32;19952;-78
2023/02/21 11:24:20;;;;;;;;;;;;;;;;;;4411649;32;20307;-78
2023/02/21 11:26:46;;;;;;;;;;;;;;;;;;4409474;32;19978;-78
2023/02/21 11:29:11;;;;;;;;;;;;;;;;;;4412184;32;19971;-78
2023/02/21 11:31:36;;;;;;;;;;;;;;;;;;4409185;32;19975;-78
2023/02/21 11:34:01;;;;;;;;;;;;;;;;;;4408088;32;20302;-77
2023/02/21 11:36:26;;;;;;;;;;;;;;;;;;4410019;32;20008;-77
2023/02/21 11:38:51;;;;;;;;;;;;;;;;;;4412883;32;19942;-78
2023/02/21 11:41:16;;;;;;;;;;;;;;;;;;4439604;32;19989;-79
2023/02/21 11:43:41;;;;;;;;;;;;;;;;;;4438473;32;20323;-78
2023/02/21 11:46:06;;;;;;;;;;;;;;;;;;4428852;32;19974;-78
2023/02/21 11:48:32;;;;;;;;;;;;;;;;;;4423384;32;19936;-78
2023/02/21 11:50:57;;;;;;;;;;;;;;;;;;4424631;32;19934;-76
2023/02/21 11:53:22;;;;;;;;;;;;;;;;;;4423786;32;19937;-78
2023/02/21 11:55:47;;;;;;;;;;;;;;;;;;4425177;32;19937;-78
2023/02/21 11:58:12;;;;;;;;;;;;;;;;;;4437820;32;19940;-78
2023/02/21 12:00:37;;;;;;;;;;;;;;;;;;4439229;32;19941;-78
2023/02/21 12:03:02;;;;;;;;;;;;;;;;;;4423629;32;19937;-77
2023/02/21 12:05:27;;;;;;;;;;;;;;;;;;4453699;32;19940;-78
2023/02/21 12:07:53;;;;;;;;;;;;;;;;;;4455032;32;19932;-78
2023/02/21 12:10:18;;;;;;;;;;;;;;;;;;4452548;32;20305;-78
2023/02/21 12:12:43;;;;;;;;;;;;;;;;;;4438391;32;20307;-78
2023/02/21 12:15:08;;;;;;;;;;;;;;;;;;4434752;32;20031;-78
2023/02/21 12:17:33;;;;;;;;;;;;;;;;;;4432464;32;20319;-77
2023/02/21 12:19:58;;;;;;;;;;;;;;;;;;4429025;32;19979;-77
2023/02/21 12:22:23;;;;;;;;;;;;;;;;;;4438824;32;19937;-77
2023/02/21 12:24:48;;;;;;;;;;;;;;;;;;4440763;32;19945;-77
2023/02/21 12:27:14;;;;;;;;;;;;;;;;;;4428356;32;19948;-78
2023/02/21 12:29:39;;;;;;;;;;;;;;;;;;4439644;32;19933;-78
2023/02/21 12:32:04;;;;;;;;;;;;;;;;;;4429938;32;20004;-78
2023/02/21 12:34:29;;;;;;;;;;;;;;;;;;4423161;32;19956;-76
2023/02/21 12:36:54;;;;;;;;;;;;;;;;;;4432824;32;19944;-77
2023/02/21 12:39:22;;;;;;;;;;;;;;;;;;4440313;32;19937;-77
2023/02/21 12:41:47;;;;;;;;;;;;;;;;;;4439023;32;19944;-79
2023/02/21 12:44:13;;;;;;;;;;;;;;;;;;4438127;32;19984;-78
2023/02/21 12:46:38;;;;;;;;;;;;;;;;;;4423733;32;20361;-77
2023/02/21 12:49:04;;;;;;;;;;;;;;;;;;4423698;32;20045;-78
2023/02/21 12:51:29;;;;;;;;;;;;;;;;;;4424340;32;19942;-77
2023/02/21 12:53:54;;;;;;;;;;;;;;;;;;4437931;32;19965;-78
2023/02/21 12:56:19;;;;;;;;;;;;;;;;;;4436941;32;19972;-77
2023/02/21 12:58:44;;;;;;;;;;;;;;;;;;4440045;32;19968;-78
2023/02/21 13:01:10;;;;;;;;;;;;;;;;;;4424482;32;19970;-78
2023/02/21 13:03:35;;;;;;;;;;;;;;;;;;4439318;32;20368;-79
2023/02/21 13:06:00;;;;;;;;;;;;;;;;;;4437672;32;20303;-79
2023/02/21 13:08:26;;;;;;;;;;;;;;;;;;4435496;32;19956;-77
2023/02/21 13:10:51;;;;;;;;;;;;;;;;;;4432682;32;19933;-79
2023/02/21 13:13:16;;;;;;;;;;;;;;;;;;4423012;32;19973;-77
2023/02/21 13:15:41;;;;;;;;;;;;;;;;;;4437038;32;19957;-77
2023/02/21 13:18:06;;;;;;;;;;;;;;;;;;4438186;32;19937;-77
2023/02/21 13:20:31;;;;;;;;;;;;;;;;;;4445899;32;19989;-76
2023/02/21 13:22:56;;;;;;;;;;;;;;;;;;4453464;32;19933;-78
2023/02/21 13:25:21;;;;;;;;;;;;;;;;;;4452566;32;20010;-78
2023/02/21 13:27:47;;;;;;;;;;;;;;;;;;4452067;32;20090;-77
2023/02/21 13:30:12;;;;;;;;;;;;;;;;;;4421740;32;19959;-78
2023/02/21 13:32:37;;;;;;;;;;;;;;;;;;4422674;32;19978;-75
2023/02/21 13:35:04;;;;;;;;;;;;;;;;;;4422654;32;20290;-77
2023/02/21 13:37:30;;;;;;;;;;;;;;;;;;4421907;32;19937;-77
2023/02/21 13:39:57;;;;;;;;;;;;;;;;;;4436559;32;20013;-76
2023/02/21 13:42:22;;;;;;;;;;;;;;;;;;4437073;32;20295;-78
2023/02/21 13:44:47;;;;;;;;;;;;;;;;;;4437440;32;20281;-77
2023/02/21 13:47:12;;;;;;;;;;;;;;;;;;4436815;32;20344;-76
2023/02/21 13:49:37;;;;;;;;;;;;;;;;;;4436225;32;19965;-76
2023/02/21 13:52:02;;;;;;;;;;;;;;;;;;4437148;32;19976;-77
2023/02/21 13:54:28;;;;;;;;;;;;;;;;;;4438625;32;19940;-78
2023/02/21 13:56:53;;;;;;;;;;;;;;;;;;4438151;32;19967;-78
2023/02/21 13:59:18;;;;;;;;;;;;;;;;;;4424399;32;19996;-78
2023/02/21 14:01:43;;;;;;;;;;;;;;;;;;4438004;32;20375;-78
2023/02/21 14:04:08;;;;;;;;;;;;;;;;;;4423692;32;19985;-77
2023/02/21 14:06:33;;;;;;;;;;;;;;;;;;4424045;32;19952;-77
2023/02/21 14:09:00;;;;;;;;;;;;;;;;;;4436939;32;19932;-77
2023/02/21 14:11:27;;;;;;;;;;;;;;;;;;4436939;32;20012;-77
2023/02/21 14:13:52;;;;;;;;;;;;;;;;;;4436544;32;20292;-78
2023/02/21 14:16:18;;;;;;;;;;;;;;;;;;4437870;32;19949;-78
2023/02/21 14:18:43;;;;;;;;;;;;;;;;;;4422131;32;19948;-79
2023/02/21 14:21:08;;;;;;;;;;;;;;;;;;4436219;32;19952;-77
2023/02/21 14:23:33;;;;;;;;;;;;;;;;;;4436568;32;19956;-78
2023/02/21 14:25:58;;;;;;;;;;;;;;;;;;4422034;32;20000;-77
2023/02/21 14:28:23;;;;;;;;;;;;;;;;;;4437814;32;20013;-78
2023/02/21 14:30:48;;;;;;;;;;;;;;;;;;4436594;32;19960;-78
2023/02/21 14:33:14;;;;;;;;;;;;;;;;;;4421858;32;19977;-78
2023/02/21 14:35:39;;;;;;;;;;;;;;;;;;4439437;32;19936;-78
2023/02/21 14:38:04;;;;;;;;;;;;;;;;;;4438299;32;20027;-77
2023/02/21 14:40:30;;;;;;;;;;;;;;;;;;4436645;32;19937;-79
2023/02/21 14:43:01;;;;;;;;;;;;;;;;;;4438552;32;19982;-80
2023/02/21 14:45:26;;;;;;;;;;;;;;;;;;4426211;32;19948;-78
2023/02/21 14:47:51;;;;;;;;;;;;;;;;;;4442538;32;20299;-77
2023/02/21 14:50:16;;;;;;;;;;;;;;;;;;4439964;32;19936;-78
2023/02/21 14:52:41;;;;;;;;;;;;;;;;;;4424349;32;19936;-77
2023/02/21 14:55:06;;;;;;;;;;;;;;;;;;4440212;32;20416;-77
2023/02/21 14:57:34;;;;;;;;;;;;;;;;;;4437503;32;19933;-78
2023/02/21 15:00:00;;;;;;;;;;;;;;;;;;4431611;32;19957;-77
2023/02/21 15:02:25;;;;;;;;;;;;;;;;;;4425963;32;19932;-78
2023/02/21 15:04:50;;;;;;;;;;;;;;;;;;4421776;32;19936;-76
2023/02/21 15:07:15;;;;;;;;;;;;;;;;;;4423316;32;19932;-78
2023/02/21 15:09:40;;;;;;;;;;;;;;;;;;4420618;32;19970;-76
2023/02/21 15:12:06;;;;;;;;;;;;;;;;;;4423113;32;19980;-76
2023/02/21 15:14:32;;;;;;;;;;;;;;;;;;4423718;32;20038;-77
2023/02/21 15:16:57;;;;;;;;;;;;;;;;;;4454749;32;19970;-78
2023/02/21 15:19:24;;;;;;;;;;;;;;;;;;4454745;32;20369;-77
2023/02/21 15:21:49;;;;;;;;;;;;;;;;;;4455404;32;19943;-77
2023/02/21 15:24:14;;;;;;;;;;;;;;;;;;4440146;32;20027;-79
2023/02/21 15:26:39;;;;;;;;;;;;;;;;;;4455791;32;20631;-78
2023/02/21 15:29:05;;;;;;;;;;;;;;;;;;4423910;32;20025;-78
2023/02/21 15:31:30;;;;;;;;;;;;;;;;;;4424230;32;20015;-77
2023/02/21 15:33:55;;;;;;;;;;;;;;;;;;4438447;32;20300;-78
2023/02/21 15:36:20;;;;;;;;;;;;;;;;;;4438813;32;19967;-77
2023/02/21 15:38:45;;;;;;;;;;;;;;;;;;4439343;32;19944;-78
2023/02/21 15:41:10;;;;;;;;;;;;;;;;;;4438469;32;19982;-77
2023/02/21 15:43:35;;;;;;;;;;;;;;;;;;4440262;32;19955;-77
2023/02/21 15:46:00;;;;;;;;;;;;;;;;;;4440401;32;19970;-76
2023/02/21 15:48:25;;;;;;;;;;;;;;;;;;4439174;32;19932;-77
2023/02/21 15:50:51;;;;;;;;;;;;;;;;;;4438893;32;19936;-78
2023/02/21 15:53:16;;;;;;;;;;;;;;;;;;4438488;32;19950;-77
2023/02/21 15:55:42;;;;;;;;;;;;;;;;;;4425035;32;19971;-77
2023/02/21 15:58:07;;;;;;;;;;;;;;;;;;4424514;32;19939;-77
2023/02/21 16:00:32;;;;;;;;;;;;;;;;;;4440132;32;19945;-78
2023/02/21 16:02:58;;;;;;;;;;;;;;;;;;4440066;32;19933;-78
2023/02/21 16:05:23;;;;;;;;;;;;;;;;;;4440960;32;20053;-79
2023/02/21 16:07:52;;;;;;;;;;;;;;;;;;4439791;32;19936;-78
2023/02/21 16:10:17;;;;;;;;;;;;;;;;;;4439510;32;19991;-78
2023/02/21 16:12:43;;;;;;;;;;;;;;;;;;4438930;32;19933;-76
2023/02/21 16:15:08;;;;;;;;;;;;;;;;;;4441830;32;20064;-77
2023/02/21 16:17:33;;;;;;;;;;;;;;;;;;4445038;32;19952;-78
2023/02/21 16:19:58;;;;;;;;;;;;;;;;;;4430330;32;19981;-77
2023/02/21 16:22:23;;;;;;;;;;;;;;;;;;4433130;32;20172;-78
2023/02/21 16:24:48;;;;;;;;;;;;;;;;;;4426890;32;19941;-79
2023/02/21 16:27:13;;;;;;;;;;;;;;;;;;4415616;32;20307;-77
2023/02/21 16:29:39;;;;;;;;;;;;;;;;;;4429370;32;20000;-78
2023/02/21 16:32:04;;;;;;;;;;;;;;;;;;4435289;32;19941;-79
2023/02/21 16:34:29;;;;;;;;;;;;;;;;;;4435470;32;20307;-78
2023/02/21 16:36:54;;;;;;;;;;;;;;;;;;4426880;32;19941;-78
2023/02/21 16:39:19;;;;;;;;;;;;;;;;;;4438366;32;19967;-79
2023/02/21 16:41:44;;;;;;;;;;;;;;;;;;4425073;32;19964;-77
2023/02/21 16:44:09;;;;;;;;;;;;;;;;;;4427282;32;19933;-78
2023/02/21 16:46:35;;;;;;;;;;;;;;;;;;4425888;32;20287;-79
2023/02/21 16:49:00;;;;;;;;;;;;;;;;;;4434876;32;19952;-77
2023/02/21 16:51:32;;;;;;;;;;;;;;;;;;4428362;32;19982;-77
2023/02/21 16:53:57;;;;;;;;;;;;;;;;;;4428696;32;20303;-77
2023/02/21 16:56:22;;;;;;;;;;;;;;;;;;4420952;32;20264;-77
2023/02/21 16:58:47;;;;;;;;;;;;;;;;;;4423784;32;20056;-77
2023/02/21 17:01:12;;;;;;;;;;;;;;;;;;4425098;32;19937;-77
2023/02/21 17:03:39;;;;;;;;;;;;;;;;;;4429175;32;19999;-77
2023/02/21 17:06:04;;;;;;;;;;;;;;;;;;4435419;32;19984;-79
2023/02/21 17:08:29;;;;;;;;;;;;;;;;;;4428843;32;19974;-78
2023/02/21 17:10:54;;;;;;;;;;;;;;;;;;4424805;32;19941;-78
2023/02/21 17:13:20;;;;;;;;;;;;;;;;;;4423657;32;19937;-77
2023/02/21 17:15:46;;;;;;;;;;;;;;;;;;4425048;32;19980;-77
2023/02/21 17:18:11;;;;;;;;;;;;;;;;;;4422859;32;19932;-77
2023/02/21 17:20:36;;;;;;;;;;;;;;;;;;4423763;32;19997;-77
2023/02/21 17:23:01;;;;;;;;;;;;;;;;;;4424682;32;19941;-78
2023/02/21 17:25:26;;;;;;;;;;;;;;;;;;4422661;32;19941;-78
2023/02/21 17:27:52;;;;;;;;;;;;;;;;;;4408619;32;19986;-78
2023/02/21 17:30:17;;;;;;;;;;;;;;;;;;4422241;32;19933;-78
2023/02/21 17:32:43;;;;;;;;;;;;;;;;;;4426415;32;20364;-79
2023/02/21 17:35:09;;;;;;;;;;;;;;;;;;4437504;32;19937;-77
2023/02/21 17:37:34;;;;;;;;;;;;;;;;;;4439399;32;19948;-78
2023/02/21 17:39:59;;;;;;;;;;;;;;;;;;4423808;32;19949;-77
2023/02/21 17:42:24;;;;;;;;;;;;;;;;;;4438715;32;19987;-77
2023/02/21 17:44:50;;;;;;;;;;;;;;;;;;4438604;32;19932;-77
2023/02/21 17:47:15;;;;;;;;;;;;;;;;;;4438366;32;19978;-76
2023/02/21 17:49:40;;;;;;;;;;;;;;;;;;4437157;32;19943;-77
2023/02/21 17:52:05;;;;;;;;;;;;;;;;;;4422396;32;19937;-77
2023/02/21 17:54:31;;;;;;;;;;;;;;;;;;4423327;32;19937;-78
2023/02/21 17:56:56;;;;;;;;;;;;;;;;;;4424500;32;19933;-79
2023/02/21 17:59:21;;;;;;;;;;;;;;;;;;4409859;32;19964;-78
2023/02/21 18:01:46;;;;;;;;;;;;;;;;;;4422216;32;19937;-77
2023/02/21 18:04:12;;;;;;;;;;;;;;;;;;4432660;32;19983;-78
2023/02/21 18:06:37;;;;;;;;;;;;;;;;;;4416800;32;19929;-78
2023/02/21 18:09:03;;;;;;;;;;;;;;;;;;4421855;32;19933;-77
2023/02/21 18:11:28;;;;;;;;;;;;;;;;;;4422705;32;20121;-77
2023/02/21 18:13:53;;;;;;;;;;;;;;;;;;4424676;32;19951;-79
2023/02/21 18:16:18;;;;;;;;;;;;;;;;;;4432417;32;20002;-78
2023/02/21 18:18:44;;;;;;;;;;;;;;;;;;4425238;32;19940;-78
2023/02/21 18:21:09;;;;;;;;;;;;;;;;;;4439260;32;19940;-81
2023/02/21 18:23:34;;;;;;;;;;;;;;;;;;4431794;32;20100;-78
2023/02/21 18:25:59;;;;;;;;;;;;;;;;;;4438190;32;19996;-80
2023/02/21 18:28:24;;;;;;;;;;;;;;;;;;4438022;32;19976;-79
2023/02/21 18:30:50;;;;;;;;;;;;;;;;;;4438538;32;19977;-81
2023/02/21 18:33:15;;;;;;;;;;;;;;;;;;4427276;32;19956;-78
2023/02/21 18:35:41;;;;;;;;;;;;;;;;;;4439965;32;19941;-79
2023/02/21 18:38:06;;;;;;;;;;;;;;;;;;4439521;32;19976;-77
2023/02/21 18:40:36;;;;;;;;;;;;;;;;;;4423481;32;19938;-79
2023/02/21 18:43:01;;;;;;;;;;;;;;;;;;4422548;32;19943;-79
2023/02/21 18:45:27;;;;;;;;;;;;;;;;;;4423687;32;19952;-79
2023/02/21 18:47:52;;;;;;;;;;;;;;;;;;4423923;32;19945;-79